Time;durP1;ratioP1;P1;durP2;ratioP2;P2;SDS_P1;SDS_P2;PMS_P1;PMS_P2;Temp;Humidity;BMP_temperature;BMP_pressure;BME280_temperature;BME280_humidity;BME280_pressure;Samples;Min_cycle;Max_cycle;Signal;HPM_P1;HPM_P2
2022/06/12 00:01:08;;;;;;;4.20;3.70;;;15.60;81.70;;;;;;5113330;28;20434;-64
2022/06/12 00:03:35;;;;;;;5.40;3.43;;;15.60;82.20;;;;;;5093180;28;20921;-64
2022/06/12 00:06:04;;;;;;;4.80;3.30;;;15.70;82.40;;;;;;5102760;28;20557;-68
2022/06/12 00:08:33;;;;;;;4.37;3.40;;;15.60;82.20;;;;;;5112768;28;20507;-64
2022/06/12 00:11:03;;;;;;;6.67;4.20;;;15.60;82.40;;;;;;5112703;28;20495;-64
2022/06/12 00:13:34;;;;;;;3.33;3.03;;;15.60;82.40;;;;;;5113400;28;20438;-64
2022/06/12 00:16:02;;;;;;;7.30;4.37;;;15.60;82.30;;;;;;5112924;28;20446;-64
2022/06/12 00:18:31;;;;;;;4.67;3.97;;;15.50;82.20;;;;;;5112659;28;20462;-64
2022/06/12 00:21:11;;;;;;;4.30;3.30;;;15.50;82.20;;;;;;5112919;28;20438;-64
2022/06/12 00:23:41;;;;;;;4.80;3.60;;;15.50;82.30;;;;;;5112774;28;20925;-64
2022/06/12 00:26:09;;;;;;;6.70;4.40;;;15.40;82.40;;;;;;5113081;28;20478;-65
2022/06/12 00:28:36;;;;;;;6.30;3.47;;;15.50;82.60;;;;;;5112536;28;20840;-64
2022/06/12 00:31:03;;;;;;;5.70;3.93;;;15.40;82.30;;;;;;5113159;28;20524;-64
2022/06/12 00:33:31;;;;;;;5.37;4.33;;;15.30;82.50;;;;;;5112141;28;20440;-65
2022/06/12 00:35:59;;;;;;;4.73;3.57;;;15.30;82.50;;;;;;5112562;28;20435;-65
2022/06/12 00:38:26;;;;;;;5.47;3.20;;;15.20;82.20;;;;;;5112743;28;20478;-64
2022/06/12 00:40:53;;;;;;;4.00;3.17;;;15.20;83.30;;;;;;5112743;28;20438;-64
2022/06/12 00:43:21;;;;;;;6.03;4.37;;;15.20;82.60;;;;;;5112728;28;20460;-65
2022/06/12 00:45:51;;;;;;;4.17;3.57;;;15.10;82.70;;;;;;5092873;28;20822;-64
2022/06/12 00:48:20;;;;;;;5.03;3.97;;;15.10;83.20;;;;;;5092292;28;20518;-64
2022/06/12 00:50:58;;;;;;;4.57;3.30;;;15.00;83.20;;;;;;5112109;28;20426;-64
2022/06/12 00:53:30;;;;;;;5.03;3.30;;;15.00;82.80;;;;;;5112706;28;20462;-64
2022/06/12 00:56:03;;;;;;;4.50;3.70;;;14.90;83.20;;;;;;5112791;28;20466;-64
2022/06/12 00:58:34;;;;;;;4.83;3.30;;;14.80;84.50;;;;;;5092461;28;20522;-64
2022/06/12 01:01:04;;;;;;;3.87;3.13;;;14.70;84.90;;;;;;5097743;28;20522;-64
2022/06/12 01:03:31;;;;;;;8.13;4.20;;;14.70;85.20;;;;;;5112702;28;20470;-64
2022/06/12 01:08:44;;;;;;;5.33;3.67;;;14.70;85.40;;;;;;5112422;28;20446;-65
2022/06/12 01:11:15;;;;;;;7.37;4.17;;;14.60;85.00;;;;;;5112583;28;20438;-64
2022/06/12 01:13:44;;;;;;;4.00;3.10;;;14.60;85.10;;;;;;5112268;28;20433;-65
2022/06/12 01:16:16;;;;;;;4.70;2.90;;;14.50;85.40;;;;;;5112379;28;20501;-64
2022/06/12 01:18:48;;;;;;;4.30;3.80;;;14.50;85.70;;;;;;5114094;28;20445;-65
2022/06/12 01:21:42;;;;;;;4.20;2.93;;;14.50;85.60;;;;;;5116482;28;20525;-64
2022/06/12 01:24:47;;;;;;;5.00;3.13;;;14.40;86.10;;;;;;5116349;28;20441;-64
2022/06/12 01:27:37;;;;;;;4.70;3.30;;;14.40;86.50;;;;;;5082412;28;20469;-65
2022/06/12 01:30:12;;;;;;;5.73;3.13;;;14.30;87.00;;;;;;5116542;28;20487;-64
2022/06/12 01:32:44;;;;;;;5.27;3.90;;;14.30;88.20;;;;;;5116119;28;20536;-65
2022/06/12 01:35:20;;;;;;;6.57;4.13;;;14.30;88.00;;;;;;5116475;28;20477;-66
2022/06/12 01:37:56;;;;;;;5.10;3.37;;;14.30;88.50;;;;;;5116217;28;20426;-64
2022/06/12 01:40:33;;;;;;;4.27;3.10;;;14.30;89.80;;;;;;5116128;28;20948;-64
2022/06/12 01:43:08;;;;;;;4.03;2.80;;;14.20;88.70;;;;;;5107794;28;20433;-64
2022/06/12 01:45:43;;;;;;;4.80;4.03;;;14.20;88.20;;;;;;5116488;28;20426;-64
2022/06/12 01:48:25;;;;;;;5.07;3.70;;;14.20;87.80;;;;;;5115915;28;20923;-64
2022/06/12 01:51:01;;;;;;;5.20;4.00;;;14.20;87.70;;;;;;5113518;28;21159;-64
2022/06/12 01:53:35;;;;;;;4.60;3.10;;;14.20;88.70;;;;;;5116221;28;20438;-64
2022/06/12 01:56:11;;;;;;;4.07;3.40;;;14.20;87.80;;;;;;5115713;28;20960;-64
2022/06/12 01:58:45;;;;;;;3.60;3.13;;;14.20;87.80;;;;;;5116185;28;20476;-64
2022/06/12 02:01:19;;;;;;;5.03;3.60;;;14.20;87.80;;;;;;5115189;28;20434;-64
2022/06/12 02:03:53;;;;;;;4.70;3.10;;;14.20;87.90;;;;;;5115528;28;20943;-66
2022/06/12 02:06:25;;;;;;;9.80;3.53;;;14.20;88.30;;;;;;5095571;28;20828;-65
2022/06/12 02:08:58;;;;;;;4.27;3.57;;;14.20;88.20;;;;;;5095551;28;20431;-65
2022/06/12 02:14:28;;;;;;;5.30;3.30;;;14.10;88.10;;;;;;5062950;28;20431;-64
2022/06/12 02:17:00;;;;;;;4.40;3.70;;;14.10;88.00;;;;;;5104746;28;20441;-64
2022/06/12 02:19:34;;;;;;;4.17;3.30;;;14.00;88.70;;;;;;5115398;28;20430;-64
2022/06/12 02:22:07;;;;;;;4.10;3.20;;;14.00;89.40;;;;;;5115296;28;20453;-64
2022/06/12 02:24:40;;;;;;;5.67;3.40;;;14.00;89.80;;;;;;5115292;28;20458;-64
2022/06/12 02:27:11;;;;;;;7.73;3.53;;;14.00;90.00;;;;;;5114957;28;21060;-65
2022/06/12 02:29:42;;;;;;;6.03;3.57;;;14.00;90.10;;;;;;5114448;28;20454;-64
2022/06/12 02:32:15;;;;;;;4.20;3.40;;;14.00;90.00;;;;;;5114817;28;20438;-64
2022/06/12 02:34:48;;;;;;;2.90;2.40;;;14.10;90.00;;;;;;5114607;28;20774;-64
2022/06/12 02:37:20;;;;;;;5.67;3.97;;;14.10;89.90;;;;;;5115095;28;20529;-64
2022/06/12 02:39:52;;;;;;;5.47;3.63;;;14.10;89.90;;;;;;5114760;28;20434;-64
2022/06/12 02:42:24;;;;;;;3.50;2.60;;;14.10;89.70;;;;;;5115144;28;20512;-64
2022/06/12 02:44:56;;;;;;;4.17;3.17;;;14.10;89.50;;;;;;5114733;28;20484;-64
2022/06/12 02:47:30;;;;;;;3.97;3.17;;;14.10;89.00;;;;;;5114956;28;20482;-64
2022/06/12 02:49:59;;;;;;;3.63;3.20;;;14.00;88.20;;;;;;5114574;28;20795;-65
2022/06/12 02:52:37;;;;;;;4.10;3.60;;;13.90;88.20;;;;;;5113777;28;20939;-64
2022/06/12 02:55:11;;;;;;;4.77;3.30;;;13.90;88.30;;;;;;5115109;28;20434;-64
2022/06/12 02:57:44;;;;;;;3.13;2.80;;;13.80;88.00;;;;;;5114622;28;20442;-64
2022/06/12 03:00:19;;;;;;;5.07;3.50;;;13.90;88.40;;;;;;5115084;28;20508;-64
2022/06/12 03:02:54;;;;;;;3.60;2.87;;;13.80;88.70;;;;;;5114553;28;20434;-65
2022/06/12 03:05:24;;;;;;;3.73;2.83;;;13.80;88.80;;;;;;5114660;28;20437;-67
2022/06/12 03:07:59;;;;;;;3.70;2.60;;;13.70;88.30;;;;;;5113663;28;20481;-65
2022/06/12 03:10:39;;;;;;;3.73;3.10;;;13.60;87.90;;;;;;5114515;28;20462;-64
2022/06/12 03:13:09;;;;;;;4.83;3.37;;;13.50;88.40;;;;;;5114603;28;20979;-64
2022/06/12 03:15:39;;;;;;;6.10;3.27;;;13.50;88.80;;;;;;5114115;28;20521;-64
2022/06/12 03:18:12;;;;;;;4.60;3.13;;;13.40;88.60;;;;;;5114566;28;20466;-64
2022/06/12 03:20:54;;;;;;;4.23;3.30;;;13.40;88.80;;;;;;5113548;28;20948;-64
2022/06/12 03:23:32;;;;;;;4.20;3.03;;;13.40;89.00;;;;;;5114442;28;20438;-65
2022/06/12 03:26:00;;;;;;;10.97;3.60;;;13.40;89.10;;;;;;5109856;28;20433;-64
2022/06/12 03:28:37;;;;;;;4.27;3.10;;;13.40;89.50;;;;;;5113673;28;20474;-64
2022/06/12 03:31:12;;;;;;;6.50;3.70;;;13.30;89.80;;;;;;5113677;28;21000;-65
2022/06/12 03:33:52;;;;;;;4.00;3.37;;;13.40;90.00;;;;;;5113341;28;20469;-64
2022/06/12 03:36:25;;;;;;;3.83;3.30;;;13.30;89.50;;;;;;5113449;28;20485;-64
2022/06/12 03:39:01;;;;;;;4.57;3.13;;;13.30;89.50;;;;;;5113919;28;20438;-64
2022/06/12 03:41:34;;;;;;;4.10;3.13;;;13.20;90.00;;;;;;5113147;28;20512;-66
2022/06/12 03:44:12;;;;;;;4.40;3.47;;;13.20;90.00;;;;;;5113895;28;20443;-64
2022/06/12 03:46:45;;;;;;;3.93;2.50;;;13.10;89.80;;;;;;5113403;28;20430;-64
2022/06/12 03:49:24;;;;;;;4.10;3.57;;;13.00;90.10;;;;;;5113981;28;20479;-64
2022/06/12 03:51:55;;;;;;;4.17;3.47;;;13.00;90.40;;;;;;5113413;28;20517;-64
2022/06/12 03:54:29;;;;;;;4.30;3.27;;;13.00;90.80;;;;;;5113689;28;20493;-65
2022/06/12 03:59:57;;;;;;;5.00;3.10;;;13.10;91.30;;;;;;5113099;28;20580;-64
2022/06/12 04:02:27;;;;;;;4.67;4.07;;;13.10;91.40;;;;;;5113646;28;20434;-64
2022/06/12 04:04:57;;;;;;;5.37;3.50;;;13.20;91.60;;;;;;5113341;28;20437;-65
2022/06/12 04:07:27;;;;;;;4.70;3.33;;;13.30;91.60;;;;;;5113432;28;20477;-64
2022/06/12 04:10:02;;;;;;;3.87;2.90;;;13.30;91.80;;;;;;5113361;28;20457;-64
2022/06/12 04:12:33;;;;;;;4.63;2.97;;;13.30;91.60;;;;;;5113761;28;20466;-64
2022/06/12 04:15:04;;;;;;;4.23;3.20;;;13.40;91.70;;;;;;5112932;28;20998;-64
2022/06/12 04:17:32;;;;;;;4.17;3.00;;;13.40;91.70;;;;;;5113023;28;20820;-64
2022/06/12 04:20:00;;;;;;;5.43;3.17;;;13.50;91.80;;;;;;5113485;28;20485;-65
2022/06/12 04:22:35;;;;;;;5.23;2.97;;;13.60;92.00;;;;;;5112654;28;20470;-64
2022/06/12 04:25:08;;;;;;;4.50;3.37;;;13.60;92.10;;;;;;5113817;28;20441;-65
2022/06/12 04:27:41;;;;;;;4.57;3.20;;;13.60;92.10;;;;;;5113076;28;20478;-64
2022/06/12 04:30:19;;;;;;;3.53;2.90;;;13.60;92.20;;;;;;5113522;28;20480;-64
2022/06/12 04:32:46;;;;;;;5.03;3.37;;;13.60;92.40;;;;;;5096871;28;20436;-64
2022/06/12 04:35:16;;;;;;;4.80;3.63;;;13.60;92.60;;;;;;5113002;28;20434;-64
2022/06/12 04:37:43;;;;;;;5.13;3.53;;;13.70;93.10;;;;;;5113336;28;20446;-64
2022/06/12 04:40:25;;;;;;;5.80;3.50;;;13.70;93.30;;;;;;5113082;28;20469;-64
2022/06/12 04:42:54;;;;;;;4.77;3.70;;;13.80;93.40;;;;;;5112824;28;20442;-64
2022/06/12 04:45:21;;;;;;;3.70;3.30;;;13.90;93.20;;;;;;5113402;28;20466;-64
2022/06/12 04:47:48;;;;;;;4.60;3.30;;;13.90;93.00;;;;;;5112414;28;20519;-64
2022/06/12 04:50:18;;;;;;;5.03;3.40;;;13.90;93.00;;;;;;5112659;28;20485;-64
2022/06/12 04:52:45;;;;;;;5.07;3.33;;;14.00;93.00;;;;;;5112529;28;20438;-64
2022/06/12 04:55:12;;;;;;;5.00;3.20;;;14.20;93.00;;;;;;5112659;28;20819;-64
2022/06/12 04:57:40;;;;;;;3.37;3.00;;;14.30;93.00;;;;;;5113236;28;20499;-64
2022/06/12 05:00:09;;;;;;;8.33;3.80;;;14.40;92.90;;;;;;5112844;28;20441;-64
2022/06/12 05:02:36;;;;;;;6.00;3.93;;;14.50;92.90;;;;;;5112905;28;20435;-64
2022/06/12 05:05:03;;;;;;;5.00;3.00;;;14.60;93.20;;;;;;5112631;28;20956;-64
2022/06/12 05:07:32;;;;;;;3.20;2.53;;;14.70;93.30;;;;;;5112253;28;20531;-64
2022/06/12 05:09:59;;;;;;;4.00;2.90;;;14.90;93.10;;;;;;5112857;28;20470;-64
2022/06/12 05:12:26;;;;;;;4.50;2.67;;;15.00;93.00;;;;;;5112757;28;20449;-64
2022/06/12 05:14:53;;;;;;;4.90;3.90;;;15.10;92.80;;;;;;5112949;28;20487;-64
2022/06/12 05:17:22;;;;;;;6.23;3.20;;;15.20;92.80;;;;;;5112595;28;20499;-65
2022/06/12 05:19:50;;;;;;;6.37;3.00;;;15.30;92.70;;;;;;5109704;28;20503;-65
2022/06/12 05:22:21;;;;;;;3.93;3.10;;;15.40;92.70;;;;;;5110752;28;20430;-64
2022/06/12 05:24:50;;;;;;;4.57;4.00;;;15.50;92.80;;;;;;5110498;28;20430;-64
2022/06/12 05:27:21;;;;;;;5.10;3.70;;;15.60;92.90;;;;;;5110728;28;20523;-65
2022/06/12 05:29:49;;;;;;;5.07;4.20;;;15.70;92.80;;;;;;5110605;28;20519;-64
2022/06/12 05:32:18;;;;;;;4.40;3.67;;;15.90;92.90;;;;;;5111050;28;20482;-65
2022/06/12 05:34:46;;;;;;;4.73;2.70;;;15.90;92.80;;;;;;5110572;28;20518;-65
2022/06/12 05:37:14;;;;;;;4.03;2.97;;;16.00;93.00;;;;;;5110829;28;20498;-64
2022/06/12 05:39:42;;;;;;;5.90;3.83;;;16.10;93.40;;;;;;5110933;28;20438;-65
2022/06/12 05:42:11;;;;;;;4.10;3.50;;;16.30;93.60;;;;;;5110796;28;20434;-65
2022/06/12 05:44:40;;;;;;;4.30;3.70;;;16.40;93.70;;;;;;5110170;28;20434;-65
2022/06/12 05:47:07;;;;;;;4.73;3.23;;;16.50;94.00;;;;;;5110667;28;20783;-64
2022/06/12 05:49:35;;;;;;;5.20;3.87;;;16.60;93.30;;;;;;5111066;28;20430;-64
2022/06/12 05:52:02;;;;;;;5.80;3.23;;;16.60;92.80;;;;;;5110631;28;20473;-65
2022/06/12 05:54:29;;;;;;;6.13;3.70;;;16.70;92.70;;;;;;5110620;28;20533;-64
2022/06/12 05:56:56;;;;;;;5.30;2.30;;;16.80;92.40;;;;;;5110157;28;20522;-64
2022/06/12 05:59:25;;;;;;;3.33;2.80;;;16.90;92.50;;;;;;5110314;28;20522;-64
2022/06/12 06:01:52;;;;;;;3.80;2.80;;;17.00;91.50;;;;;;5110632;28;20842;-64
2022/06/12 06:04:20;;;;;;;4.60;3.00;;;17.10;89.00;;;;;;5106327;28;20436;-64
2022/06/12 06:06:50;;;;;;;5.13;2.77;;;17.10;88.30;;;;;;5113798;28;20434;-64
2022/06/12 06:09:17;;;;;;;3.23;2.30;;;17.20;87.50;;;;;;5113852;28;20480;-64
2022/06/12 06:11:45;;;;;;;3.20;2.50;;;17.30;86.80;;;;;;5113816;28;20446;-65
2022/06/12 06:14:12;;;;;;;3.70;2.97;;;17.40;87.90;;;;;;5113614;28;20465;-65
2022/06/12 06:16:42;;;;;;;3.90;2.00;;;17.50;85.90;;;;;;5113333;28;20485;-65
2022/06/12 06:19:10;;;;;;;3.43;2.17;;;17.60;87.00;;;;;;5113452;28;20439;-65
2022/06/12 06:21:39;;;;;;;4.30;2.23;;;17.70;87.60;;;;;;5109599;28;20916;-65
2022/06/12 06:24:07;;;;;;;4.33;2.33;;;17.80;87.10;;;;;;5114319;28;20438;-64
2022/06/12 06:26:34;;;;;;;4.27;2.27;;;17.90;85.80;;;;;;5113646;28;20474;-64
2022/06/12 06:29:02;;;;;;;4.30;2.67;;;18.00;84.50;;;;;;5113549;28;20569;-65
2022/06/12 06:31:29;;;;;;;3.40;2.77;;;18.10;84.50;;;;;;5113578;28;20439;-65
2022/06/12 06:33:58;;;;;;;3.10;2.27;;;18.30;84.50;;;;;;5113556;28;20995;-65
2022/06/12 06:36:25;;;;;;;8.73;2.70;;;18.40;83.60;;;;;;5112838;28;20438;-66
2022/06/12 06:38:54;;;;;;;4.63;2.57;;;18.50;82.70;;;;;;5113508;28;20435;-65
2022/06/12 06:41:21;;;;;;;3.60;2.50;;;18.60;83.70;;;;;;5113764;28;20875;-65
2022/06/12 06:46:32;;;;;;;5.00;2.50;;;18.80;85.00;;;;;;5113903;28;20425;-65
2022/06/12 06:49:01;;;;;;;3.70;2.27;;;18.90;83.10;;;;;;5112808;28;20899;-70
2022/06/12 06:51:30;;;;;;;3.10;2.40;;;19.00;80.70;;;;;;5112685;28;20525;-65
2022/06/12 06:53:58;;;;;;;5.83;2.73;;;19.00;83.30;;;;;;5112832;28;20430;-65
2022/06/12 06:56:25;;;;;;;6.07;1.87;;;19.20;82.80;;;;;;5113748;28;20473;-65
2022/06/12 06:58:52;;;;;;;3.13;1.93;;;19.30;80.90;;;;;;5112702;28;20827;-66
2022/06/12 07:01:19;;;;;;;3.20;1.70;;;19.50;81.10;;;;;;5108995;28;20502;-65
2022/06/12 07:03:46;;;;;;;3.40;2.27;;;19.60;79.00;;;;;;5112943;28;20430;-65
2022/06/12 07:06:16;;;;;;;4.57;2.23;;;19.70;78.60;;;;;;5113053;28;20859;-65
2022/06/12 07:08:44;;;;;;;3.77;2.50;;;19.80;76.60;;;;;;5111849;28;20817;-65
2022/06/12 07:11:11;;;;;;;3.67;2.60;;;19.90;76.50;;;;;;5113125;28;20438;-65
2022/06/12 07:13:38;;;;;;;3.40;2.53;;;20.00;76.10;;;;;;5112378;28;20501;-65
2022/06/12 07:16:06;;;;;;;2.80;1.83;;;20.10;75.90;;;;;;5111948;28;20442;-65
2022/06/12 07:18:33;;;;;;;3.43;2.30;;;20.20;76.30;;;;;;5112149;28;20446;-65
2022/06/12 07:21:02;;;;;;;3.53;2.70;;;20.40;78.30;;;;;;5113298;28;20434;-65
2022/06/12 07:23:31;;;;;;;3.10;2.20;;;20.60;78.80;;;;;;5112963;28;20438;-65
2022/06/12 07:26:06;;;;;;;5.10;2.00;;;20.80;78.00;;;;;;5112167;28;20517;-66
2022/06/12 07:28:34;;;;;;;3.07;2.03;;;20.90;75.80;;;;;;5112489;28;21817;-65
2022/06/12 07:31:02;;;;;;;3.43;2.27;;;21.00;74.20;;;;;;5113096;28;20434;-65
2022/06/12 07:33:29;;;;;;;3.60;2.40;;;21.10;72.10;;;;;;5112691;28;20434;-66
2022/06/12 07:35:56;;;;;;;2.70;2.10;;;21.20;71.60;;;;;;5113071;28;20442;-65
2022/06/12 07:38:26;;;;;;;3.10;2.47;;;21.20;70.60;;;;;;5112924;28;20533;-66
2022/06/12 07:40:58;;;;;;;3.20;2.03;;;21.30;71.40;;;;;;5112946;28;20434;-66
2022/06/12 07:43:27;;;;;;;2.97;2.00;;;21.50;72.80;;;;;;5109427;28;20438;-65
2022/06/12 07:45:57;;;;;;;5.43;2.50;;;21.60;69.00;;;;;;5112747;28;20434;-67
2022/06/12 07:48:25;;;;;;;3.60;2.00;;;21.70;67.90;;;;;;5111361;28;20470;-67
2022/06/12 07:50:54;;;;;;;2.97;2.00;;;21.90;66.50;;;;;;5108343;28;20449;-65
2022/06/12 07:53:22;;;;;;;3.23;1.90;;;22.00;67.70;;;;;;5112888;28;20538;-65
2022/06/12 07:55:50;;;;;;;2.27;1.60;;;22.10;66.60;;;;;;5111852;28;20442;-66
2022/06/12 07:58:20;;;;;;;2.73;2.40;;;22.20;65.20;;;;;;5111802;28;20439;-66
2022/06/12 08:00:48;;;;;;;3.23;2.10;;;22.30;64.80;;;;;;5111550;28;20468;-65
2022/06/12 08:03:15;;;;;;;2.97;2.20;;;22.50;63.60;;;;;;5110650;28;20455;-65
2022/06/12 08:05:43;;;;;;;3.00;2.10;;;22.60;63.70;;;;;;5111400;28;20522;-66
2022/06/12 08:08:10;;;;;;;2.60;2.10;;;22.70;64.90;;;;;;5111931;28;20478;-65
2022/06/12 08:10:38;;;;;;;3.23;2.03;;;22.80;63.30;;;;;;5111955;28;20440;-67
2022/06/12 08:13:07;;;;;;;3.43;1.90;;;23.00;64.00;;;;;;5112092;28;20493;-66
2022/06/12 08:15:36;;;;;;;3.40;2.17;;;23.10;65.60;;;;;;5112035;28;20808;-66
2022/06/12 08:18:04;;;;;;;3.57;2.17;;;23.30;66.10;;;;;;5112020;28;20428;-65
2022/06/12 08:20:34;;;;;;;4.20;2.37;;;23.40;65.70;;;;;;5111760;28;20440;-65
2022/06/12 08:23:05;;;;;;;3.97;2.00;;;23.50;62.60;;;;;;5110164;28;20444;-65
2022/06/12 08:25:35;;;;;;;3.10;1.97;;;23.70;62.70;;;;;;5111736;28;20447;-65
2022/06/12 08:28:02;;;;;;;9.50;2.50;;;23.80;63.50;;;;;;5110473;28;20465;-69
2022/06/12 08:30:30;;;;;;;4.53;2.47;;;23.90;59.50;;;;;;5110936;28;20971;-66
2022/06/12 08:32:59;;;;;;;4.07;1.90;;;24.00;57.10;;;;;;5111370;28;20472;-66
2022/06/12 08:35:30;;;;;;;3.23;2.30;;;24.20;56.60;;;;;;5111308;28;20436;-66
2022/06/12 08:37:58;;;;;;;2.77;1.67;;;24.30;56.90;;;;;;5110000;28;20437;-66
2022/06/12 08:40:35;;;;;;;5.73;1.83;;;24.30;56.10;;;;;;5111145;28;20529;-65
2022/06/12 08:43:09;;;;;;;2.53;1.60;;;24.40;52.80;;;;;;5110906;28;20437;-66
2022/06/12 08:45:43;;;;;;;2.97;2.03;;;24.60;55.40;;;;;;5107495;28;20433;-65
2022/06/12 08:48:19;;;;;;;2.50;1.70;;;24.70;50.60;;;;;;5111990;28;20456;-66
2022/06/12 08:50:53;;;;;;;5.30;1.90;;;24.80;52.30;;;;;;5107926;28;20502;-65
2022/06/12 08:53:28;;;;;;;3.17;1.50;;;24.90;47.00;;;;;;5111849;28;20449;-65
2022/06/12 08:56:00;;;;;;;2.47;1.50;;;25.00;46.50;;;;;;5111476;28;20520;-65
2022/06/12 08:58:32;;;;;;;3.40;1.53;;;25.20;48.60;;;;;;5111723;28;20933;-65
2022/06/12 09:01:00;;;;;;;3.90;1.50;;;25.30;49.90;;;;;;5111172;28;20505;-67
2022/06/12 09:03:33;;;;;;;3.00;1.90;;;25.40;49.10;;;;;;5107736;28;20934;-65
2022/06/12 09:06:07;;;;;;;3.30;1.40;;;25.60;47.60;;;;;;5111131;28;20761;-66
2022/06/12 09:08:43;;;;;;;3.20;1.70;;;25.60;43.60;;;;;;5111158;28;20477;-66
2022/06/12 09:11:16;;;;;;;3.43;1.30;;;25.70;42.90;;;;;;5111932;28;20875;-66
2022/06/12 09:13:51;;;;;;;2.53;1.30;;;25.80;42.30;;;;;;5110912;28;20434;-65
2022/06/12 09:16:23;;;;;;;2.37;1.60;;;25.90;43.20;;;;;;5111594;28;20453;-65
2022/06/12 09:18:59;;;;;;;2.67;1.60;;;26.00;44.10;;;;;;5111128;28;20860;-66
2022/06/12 09:21:34;;;;;;;4.23;1.57;;;26.10;45.40;;;;;;5108537;28;20469;-65
2022/06/12 09:24:16;;;;;;;2.57;1.60;;;26.20;46.60;;;;;;5110278;28;20437;-66
2022/06/12 09:26:53;;;;;;;2.50;1.80;;;26.40;45.10;;;;;;5108318;28;20815;-65
2022/06/12 09:29:31;;;;;;;3.60;2.27;;;26.40;45.50;;;;;;5110492;28;20477;-65
2022/06/12 09:32:04;;;;;;;2.57;1.83;;;26.50;45.50;;;;;;5111687;28;20454;-65
2022/06/12 09:34:39;;;;;;;3.33;1.30;;;26.60;41.50;;;;;;5110997;28;20533;-65
2022/06/12 09:40:21;;;;;;;3.83;1.23;;;26.80;42.40;;;;;;5102041;28;20422;-67
2022/06/12 09:43:00;;;;;;;2.00;1.00;;;27.00;41.10;;;;;;5115158;28;20487;-65
2022/06/12 09:45:33;;;;;;;3.00;1.10;;;27.10;39.60;;;;;;5113710;28;20477;-66
2022/06/12 09:48:12;;;;;;;2.83;1.20;;;27.10;38.60;;;;;;5114685;28;20931;-65
2022/06/12 09:50:53;;;;;;;2.00;1.30;;;27.20;37.30;;;;;;5113607;28;20425;-66
2022/06/12 09:54:00;;;;;;;2.10;0.90;;;27.30;35.70;;;;;;5114449;28;20430;-66
2022/06/12 09:56:34;;;;;;;2.07;1.10;;;27.30;33.80;;;;;;5093749;28;20461;-65
2022/06/12 09:59:08;;;;;;;2.20;1.20;;;27.40;35.50;;;;;;5112503;28;20437;-65
2022/06/12 10:01:39;;;;;;;2.93;1.50;;;27.40;38.10;;;;;;5114114;28;20524;-66
2022/06/12 10:04:14;;;;;;;2.40;1.33;;;27.60;37.00;;;;;;5114720;28;21953;-66
2022/06/12 10:06:47;;;;;;;2.63;1.70;;;27.60;36.10;;;;;;5114339;28;20469;-66
2022/06/12 10:09:20;;;;;;;2.13;1.23;;;27.80;36.30;;;;;;5111455;28;20560;-66
2022/06/12 10:11:52;;;;;;;4.60;1.30;;;27.90;34.50;;;;;;5115009;28;20438;-66
2022/06/12 10:14:27;;;;;;;2.77;1.13;;;27.90;31.60;;;;;;5109518;28;20960;-65
2022/06/12 10:16:59;;;;;;;2.63;0.93;;;27.90;30.50;;;;;;5114844;28;20790;-65
2022/06/12 10:19:32;;;;;;;2.43;1.40;;;27.90;33.10;;;;;;5114464;28;20434;-65
2022/06/12 10:22:03;;;;;;;2.40;1.40;;;28.00;33.00;;;;;;5114395;28;20438;-65
2022/06/12 10:24:30;;;;;;;2.17;1.23;;;28.00;34.50;;;;;;5114621;28;20434;-67
2022/06/12 10:27:00;;;;;;;2.00;1.00;;;28.00;31.00;;;;;;5114051;28;20442;-65
2022/06/12 10:29:28;;;;;;;2.30;1.03;;;28.00;29.20;;;;;;5113772;28;20873;-65
2022/06/12 10:32:00;;;;;;;3.93;1.27;;;28.00;31.30;;;;;;5113560;28;20434;-65
2022/06/12 10:34:30;;;;;;;2.23;1.00;;;28.10;31.60;;;;;;5109695;28;20441;-65
2022/06/12 10:36:57;;;;;;;2.03;1.20;;;28.10;28.40;;;;;;5112950;28;20529;-65
2022/06/12 10:39:26;;;;;;;2.00;1.10;;;28.20;29.20;;;;;;5113510;28;20932;-65
2022/06/12 10:41:56;;;;;;;2.37;1.10;;;28.10;30.10;;;;;;5113931;28;20512;-66
2022/06/12 10:44:37;;;;;;;4.53;1.50;;;28.20;32.20;;;;;;5113395;28;20454;-65
2022/06/12 10:47:20;;;;;;;2.20;1.20;;;28.20;33.70;;;;;;5113860;28;20962;-65
2022/06/12 10:49:48;;;;;;;3.43;1.20;;;28.40;33.90;;;;;;5112508;28;20474;-65
2022/06/12 10:52:19;;;;;;;2.00;1.20;;;28.40;31.80;;;;;;5112440;28;20422;-66
2022/06/12 10:54:49;;;;;;;3.17;1.23;;;28.40;31.50;;;;;;5109357;28;20441;-65
2022/06/12 10:57:36;;;;;;;3.10;1.73;;;28.50;33.40;;;;;;5111283;28;20495;-65
2022/06/12 11:00:09;;;;;;;4.67;1.73;;;28.50;33.10;;;;;;5110725;28;20453;-65
2022/06/12 11:03:07;;;;;;;2.83;1.30;;;28.60;32.60;;;;;;5111353;28;20473;-65
2022/06/12 11:05:49;;;;;;;2.40;1.50;;;28.70;32.80;;;;;;5111160;28;20842;-66
2022/06/12 11:08:36;;;;;;;3.00;1.83;;;28.80;34.30;;;;;;5111517;28;20450;-67
2022/06/12 11:11:16;;;;;;;2.40;1.37;;;28.90;33.90;;;;;;5110964;28;20521;-66
2022/06/12 11:13:59;;;;;;;3.43;1.60;;;29.00;31.40;;;;;;5111092;28;20430;-66
2022/06/12 11:16:40;;;;;;;2.30;1.40;;;29.00;30.50;;;;;;5111472;28;20466;-66
2022/06/12 11:19:21;;;;;;;2.30;1.23;;;29.00;28.50;;;;;;5111333;27;20481;-65
2022/06/12 11:22:00;;;;;;;2.43;1.60;;;28.90;29.00;;;;;;5110891;28;20430;-66
2022/06/12 11:24:31;;;;;;;3.40;1.60;;;28.90;30.00;;;;;;5111210;28;20442;-66
2022/06/12 11:27:16;;;;;;;3.27;1.37;;;29.00;31.90;;;;;;5111476;28;20826;-67
2022/06/12 11:29:57;;;;;;;2.03;1.20;;;29.10;31.20;;;;;;5070927;28;20475;-65
2022/06/12 11:32:36;;;;;;;2.50;1.30;;;29.10;29.80;;;;;;5070950;28;20534;-65
2022/06/12 11:35:17;;;;;;;4.93;2.33;;;29.20;30.70;;;;;;5067798;28;20475;-66
2022/06/12 11:38:07;;;;;;;2.10;1.07;;;29.40;33.90;;;;;;5070639;28;20472;-65
2022/06/12 11:40:40;;;;;;;2.30;1.40;;;29.50;31.30;;;;;;5070736;28;20428;-65
2022/06/12 11:43:19;;;;;;;2.17;1.50;;;29.40;28.70;;;;;;5069902;28;20980;-66
2022/06/12 11:45:59;;;;;;;2.60;1.47;;;29.40;28.60;;;;;;5070168;28;20527;-65
2022/06/12 11:48:50;;;;;;;2.40;1.30;;;29.20;29.10;;;;;;5067686;28;20452;-65
2022/06/12 11:51:26;;;;;;;2.60;1.40;;;29.10;32.30;;;;;;5070150;28;20670;-65
2022/06/12 11:54:07;;;;;;;2.30;1.20;;;29.20;32.40;;;;;;5068812;28;20522;-65
2022/06/12 11:56:41;;;;;;;3.40;1.33;;;29.10;29.90;;;;;;5068198;28;20440;-65
2022/06/12 11:59:22;;;;;;;5.03;1.67;;;29.20;32.30;;;;;;5070638;28;20442;-66
2022/06/12 12:01:58;;;;;;;2.20;1.30;;;29.20;29.10;;;;;;5069241;28;20551;-65
2022/06/12 12:05:09;;;;;;;2.10;1.40;;;29.10;29.70;;;;;;5069572;28;20983;-66
2022/06/12 12:07:49;;;;;;;1.97;1.30;;;29.10;32.20;;;;;;5063861;28;20435;-65
2022/06/12 12:10:33;;;;;;;2.93;1.40;;;29.00;31.20;;;;;;5069855;28;20657;-65
2022/06/12 12:13:06;;;;;;;2.87;1.23;;;29.00;32.70;;;;;;5068757;28;20467;-66
2022/06/12 12:15:43;;;;;;;4.03;2.07;;;29.00;33.70;;;;;;5069962;28;20468;-65
2022/06/12 12:18:17;;;;;;;4.20;1.43;;;29.00;33.90;;;;;;5069914;28;20450;-65
2022/06/12 12:20:45;;;;;;;2.20;1.37;;;29.10;35.30;;;;;;5068770;28;20428;-65
2022/06/12 12:23:17;;;;;;;5.00;1.53;;;29.20;35.00;;;;;;5069435;28;20531;-65
2022/06/12 12:25:52;;;;;;;3.17;1.20;;;29.30;32.30;;;;;;5069799;28;20466;-66
2022/06/12 12:28:24;;;;;;;2.47;1.27;;;29.30;32.10;;;;;;5087661;28;20481;-65
2022/06/12 12:30:58;;;;;;;2.53;1.20;;;29.40;30.70;;;;;;5110356;28;20466;-65
2022/06/12 12:33:28;;;;;;;1.93;0.97;;;29.40;31.90;;;;;;5109653;28;20916;-65
2022/06/12 12:41:49;;;;;;;3.67;1.60;;;29.20;30.50;;;;;;5061273;28;20949;-66
2022/06/12 12:44:28;;;;;;;3.87;1.27;;;29.30;33.10;;;;;;5110233;28;20829;-65
2022/06/12 12:46:57;;;;;;;4.10;1.73;;;29.30;30.70;;;;;;5109558;28;20489;-65
2022/06/12 12:49:27;;;;;;;2.00;1.20;;;29.30;31.50;;;;;;5109338;28;20469;-66
2022/06/12 12:52:09;;;;;;;3.10;1.80;;;29.30;32.00;;;;;;5107866;28;20924;-66
2022/06/12 12:54:48;;;;;;;2.50;1.23;;;29.30;30.80;;;;;;5109760;28;20441;-66
2022/06/12 12:57:17;;;;;;;2.80;1.70;;;29.30;28.20;;;;;;5109335;28;20839;-65
2022/06/12 12:59:46;;;;;;;5.47;1.40;;;29.30;28.20;;;;;;5109280;28;20529;-66
2022/06/12 13:02:24;;;;;;;1.87;1.10;;;29.20;28.00;;;;;;5109401;28;20438;-65
2022/06/12 13:04:53;;;;;;;3.90;1.50;;;29.20;30.90;;;;;;5109331;28;20494;-68
2022/06/12 13:07:38;;;;;;;2.47;1.30;;;29.20;30.60;;;;;;5109633;28;20471;-65
2022/06/12 13:10:29;;;;;;;4.10;1.60;;;29.10;30.80;;;;;;5109187;28;20520;-66
2022/06/12 13:13:27;;;;;;;4.43;1.00;;;29.10;31.40;;;;;;5108650;28;20427;-66
2022/06/12 13:16:01;;;;;;;2.20;1.30;;;29.10;33.60;;;;;;5113049;28;20486;-65
2022/06/12 13:18:46;;;;;;;2.07;1.20;;;29.10;33.10;;;;;;5112573;28;20450;-66
2022/06/12 13:21:21;;;;;;;3.37;1.30;;;29.20;32.10;;;;;;5112535;28;20452;-65
2022/06/12 13:24:00;;;;;;;2.43;1.30;;;29.20;32.70;;;;;;5113595;28;20433;-65
2022/06/12 13:26:31;;;;;;;2.87;1.80;;;29.20;33.40;;;;;;5110925;28;20999;-67
2022/06/12 13:29:00;;;;;;;2.33;1.30;;;29.30;33.70;;;;;;5113695;28;21413;-66
2022/06/12 13:31:33;;;;;;;1.83;1.07;;;29.30;34.90;;;;;;5113299;28;20474;-65
2022/06/12 13:34:04;;;;;;;5.80;1.97;;;29.30;33.90;;;;;;5113980;28;20445;-67
2022/06/12 13:36:40;;;;;;;2.10;1.27;;;29.30;34.00;;;;;;5114125;28;20483;-66